HTDAHTZA

Guest
Details From HTDA - MWALIMU JULIUS K NYERERE INTL
To HTZA - ZANZIBAR
Flight Number -
Tags generated
Created
Modified
Stats Distance 41 nm / 76 km
Max Altitude 300 ft / 91 m
Waypoints 3
Social Downloads 1
Likes 0
Share VATSIM

Download

Looking for another format? Having issues loading an existing format? Contact us
Advertisement - Login to hide

Notes

Basic altitude profile: - Ascent Rate: 2500ft/min - Ascent Speed: 170kts - Cruise Altitude: 1000ft - Cruise Speed: 200kts - Descent Rate: 1500ft/min - Descent Speed: 170kts Options: - Use NATs: yes - Use PACOTS: yes - Use low airways: yes - Use high airways: yes

Route

HTDA DV HTZA

ID Type Via Altitude (ft/m) Position (lat/lon) Dist (leg/tot) Name
O HTDA APT - 0 / 0 -6.87505 / 39.20426 - / 0 nm MWALIMU JULIUS K NYERERE INTL
DV VOR - 300 / 91 -6.88865 / 39.19271 1 / 1 nm DAR ES SALAAM VOR-DME
O HTZA APT - 0 / 0 -6.22202 / 39.22488 40 / 41 nm ZANZIBAR

Altitude Profile

Advertisement - Login to hide

HTDA

Details ICAO HTDA (DAR)
Name MWALIMU JULIUS K NYERERE INTL
Region Tanzania
Timezone Africa/Dar_es_Salaam (UTC+3.0)
Stats Elevation 182 ft / 55 m (AMSL)
Location -6.875010° 39.204400°
Runways 2
Magnetic Variation 2.125° W

METAR

HTDA 182300Z 00000KT 9999 FEW011 21/20 Q1017 NOSIG

Decode

TAF

TAF HTDA 181700Z 1818/1924 13005KT 9999 FEW018 BECMG 1819/1822 00000KT BECMG 1906/1909 14010KT BKN015 BECMG 1914/1917 SCT023

Decode

Departure Runways

ID Width Length Bearing (true/mag) Surface Threshold Overrun Markings Lighting
05 151 ft / 46 m 9,828 ft / 2,996 m 44.82° / 46.95° ASPHALT 0 ft / 0 m 197 ft / 60 m PREC-APP EDGE THRESHOLD SALS REIL-OMNI
14 98 ft / 30 m 3,306 ft / 1,008 m 135.26° / 137.39° ASPHALT 0 ft / 0 m 0 ft / 0 m APP
23 151 ft / 46 m 9,828 ft / 2,996 m 224.81° / 226.94° ASPHALT 0 ft / 0 m 197 ft / 60 m PREC-APP EDGE THRESHOLD SALS REIL-OMNI
32 98 ft / 30 m 3,306 ft / 1,008 m 315.26° / 317.39° ASPHALT 0 ft / 0 m 0 ft / 0 m VISUAL

HTZA

Details ICAO HTZA (ZNZ)
Name Zanzibar Airport
Region Tanzania
Timezone Africa/Dar_es_Salaam (UTC+3.0)
Stats Elevation 54 ft / 16 m (AMSL)
Location -6.224530° 39.225200°
Runways 1
Magnetic Variation 1.805° W

METAR

Not found

TAF

TAF HTZA 181700Z 1818/1918 00000KT 9999 FEW014 BECMG 1902/1905 18010KT BKN018 BECMG 1909/1911 13015KT SCT020

Decode

Destination Runways

ID Width Length Bearing (true/mag) Surface Threshold Overrun Markings Lighting
18 148 ft / 45 m 9,969 ft / 3,039 m 174.32° / 176.12° ASPHALT 0 ft / 0 m 272 ft / 83 m APP EDGE THRESHOLD SALS REIL-OMNI
36 148 ft / 45 m 9,969 ft / 3,039 m 354.31° / 356.11° ASPHALT 0 ft / 0 m 171 ft / 52 m APP EDGE THRESHOLD SALS REIL-OMNI

Popular Alternatives